Time;durP1;ratioP1;P1;durP2;ratioP2;P2;SDS_P1;SDS_P2;PMS_P1;PMS_P2;Temp;Humidity;BMP_temperature;BMP_pressure;BME280_temperature;BME280_humidity;BME280_pressure;Samples;Min_cycle;Max_cycle;Signal;HPM_P1;HPM_P2
2021/06/13 00:00:17;;;;;;;5.07;2.92;;;;;;;17.41;48.33;101454.84;699644;28;16035;-65
2021/06/13 00:00:38;;;;;;;5.63;2.90;;;;;;;17.41;48.15;101456.72;695809;28;90359;-64
2021/06/13 00:01:02;;;;;;;5.57;2.67;;;;;;;17.40;47.90;101455.03;698221;28;23457;-65
2021/06/13 00:01:24;;;;;;;5.20;2.60;;;;;;;17.39;48.29;101456.91;697336;28;67495;-66
2021/06/13 00:01:46;;;;;;;4.80;2.80;;;;;;;17.40;48.26;101455.03;698773;28;44365;-65
2021/06/13 00:02:07;;;;;;;5.28;2.80;;;;;;;17.39;48.01;101458.81;698557;28;46342;-65
2021/06/13 00:02:28;;;;;;;5.07;2.90;;;;;;;17.37;48.28;101455.44;698121;28;22346;-65
2021/06/13 00:02:50;;;;;;;4.13;2.58;;;;;;;17.36;48.35;101460.06;697519;28;46424;-65
2021/06/13 00:03:11;;;;;;;5.57;2.70;;;;;;;17.37;48.38;101466.38;698890;28;23414;-65
2021/06/13 00:03:32;;;;;;;4.57;2.60;;;;;;;17.36;48.48;101460.06;699677;28;22389;-66
2021/06/13 00:03:53;;;;;;;4.50;2.50;;;;;;;17.36;47.94;101464.69;699789;28;17618;-65
2021/06/13 00:04:14;;;;;;;3.97;2.60;;;;;;;17.35;47.95;101466.59;699176;28;23421;-65
2021/06/13 00:04:36;;;;;;;4.00;2.60;;;;;;;17.35;47.96;101466.59;699395;28;23425;-65
2021/06/13 00:04:57;;;;;;;5.30;2.50;;;;;;;17.35;47.90;101463.84;698851;28;44328;-66
2021/06/13 00:05:18;;;;;;;4.47;2.40;;;;;;;17.36;48.09;101467.41;699095;28;23448;-66
2021/06/13 00:05:39;;;;;;;3.78;2.45;;;;;;;17.33;47.94;101463.19;699719;28;22382;-66
2021/06/13 00:06:01;;;;;;;3.25;2.42;;;;;;;17.31;47.57;101467.19;696054;28;21525;-65
2021/06/13 00:06:22;;;;;;;3.72;2.67;;;;;;;17.29;47.98;101464.66;696712;28;1915;-65
2021/06/13 00:06:43;;;;;;;4.32;2.60;;;;;;;17.28;47.73;101462.97;696576;28;20095;-65
2021/06/13 00:07:04;;;;;;;5.30;2.72;;;;;;;17.27;48.02;101464.88;696113;28;19283;-65
2021/06/13 00:07:26;;;;;;;5.15;2.60;;;;;;;17.26;47.94;101463.19;695632;28;46178;-64
2021/06/13 00:07:47;;;;;;;3.28;2.67;;;;;;;17.23;47.78;101463.59;696833;28;21195;-65
2021/06/13 00:08:08;;;;;;;4.18;2.45;;;;;;;17.22;47.94;101456.44;699128;28;23287;-65
2021/06/13 00:08:30;;;;;;;6.10;2.50;;;;;;;17.22;47.69;101461.06;700234;28;1417;-65
2021/06/13 00:08:51;;;;;;;5.13;2.60;;;;;;;17.22;48.14;101466.50;699144;28;35621;-65
2021/06/13 00:09:12;;;;;;;5.53;2.65;;;;;;;17.22;48.12;101464.63;699722;28;24281;-65
2021/06/13 00:09:33;;;;;;;6.03;2.60;;;;;;;17.24;48.06;101461.69;698692;28;10390;-65
2021/06/13 00:09:55;;;;;;;3.53;2.38;;;;;;;17.25;47.73;101468.84;699345;28;20831;-64
2021/06/13 00:10:18;;;;;;;3.85;2.55;;;;;;;17.26;47.72;101463.19;698509;28;46390;-66
2021/06/13 00:10:39;;;;;;;4.68;2.63;;;;;;;17.28;47.63;101460.25;698572;28;50993;-65
2021/06/13 00:11:00;;;;;;;3.40;2.50;;;;;;;17.25;47.32;101461.47;699535;28;22470;-65
2021/06/13 00:11:22;;;;;;;3.83;2.35;;;;;;;17.22;47.52;101464.63;699193;28;23563;-65
2021/06/13 00:11:43;;;;;;;4.47;2.30;;;;;;;17.24;47.46;101458.94;700000;28;11463;-65
2021/06/13 00:12:05;;;;;;;2.67;2.17;;;;;;;17.22;47.70;101459.16;698707;28;45288;-66
2021/06/13 00:12:27;;;;;;;5.10;2.47;;;;;;;17.22;47.59;101459.16;699966;28;943;-65
2021/06/13 00:12:56;;;;;;;4.95;2.60;;;;;;;17.23;47.20;101455.38;697738;28;60724;-65
2021/06/13 00:13:17;;;;;;;3.78;2.20;;;;;;;17.22;47.54;101458.31;698488;28;22402;-65
2021/06/13 00:13:39;;;;;;;3.42;2.25;;;;;;;17.22;47.34;101464.63;698676;28;46330;-66
2021/06/13 00:14:02;;;;;;;5.38;2.55;;;;;;;17.23;47.25;101465.47;700265;28;1560;-66
2021/06/13 00:14:23;;;;;;;3.67;2.83;;;;;;;17.22;47.25;101467.34;696596;28;20248;-65
2021/06/13 00:14:45;;;;;;;3.70;2.60;;;;;;;17.24;47.31;101467.13;695771;28;30770;-65
2021/06/13 00:15:10;;;;;;;2.65;2.42;;;;;;;17.23;46.97;101460.84;697282;28;903;-63
2021/06/13 00:15:33;;;;;;;3.80;2.38;;;;;;;17.23;47.32;101468.22;695739;28;80994;-66
2021/06/13 00:15:54;;;;;;;6.00;2.40;;;;;;;17.20;47.27;101463.97;696738;28;41845;-66
2021/06/13 00:16:16;;;;;;;4.70;2.20;;;;;;;17.21;47.24;101464.81;698720;28;21881;-64
2021/06/13 00:16:37;;;;;;;3.85;2.35;;;;;;;17.21;47.35;101470.28;698658;28;45504;-65
2021/06/13 00:16:58;;;;;;;4.47;2.53;;;;;;;17.21;47.06;101471.13;699739;28;19061;-65
2021/06/13 00:17:20;;;;;;;4.82;2.40;;;;;;;17.20;47.15;101472.19;697426;28;961;-66
2021/06/13 00:17:41;;;;;;;6.18;2.33;;;;;;;17.21;47.33;101473.00;696592;28;23727;-65
2021/06/13 00:18:04;;;;;;;4.53;2.17;;;;;;;17.21;47.26;101462.94;696982;28;1333;-65
2021/06/13 00:18:25;;;;;;;3.45;2.25;;;;;;;17.21;47.31;101465.69;697189;28;5479;-65
2021/06/13 00:18:48;;;;;;;2.50;2.10;;;;;;;17.21;47.29;101464.81;697411;28;943;-65
2021/06/13 00:19:09;;;;;;;2.60;2.22;;;;;;;17.21;46.90;101464.81;695932;28;22407;-65
2021/06/13 00:19:30;;;;;;;2.85;2.10;;;;;;;17.21;47.24;101479.31;695784;28;22012;-66
2021/06/13 00:19:52;;;;;;;5.03;2.20;;;;;;;17.20;47.05;101474.91;694450;28;22410;-65
2021/06/13 00:20:15;;;;;;;4.20;2.10;;;;;;;17.19;47.05;101473.22;694353;28;46298;-65
2021/06/13 00:20:36;;;;;;;4.63;2.28;;;;;;;17.19;46.67;101473.22;693583;28;65921;-65
2021/06/13 00:20:57;;;;;;;4.88;2.40;;;;;;;17.20;46.58;101469.44;695709;28;12627;-64
2021/06/13 00:21:18;;;;;;;3.03;2.60;;;;;;;17.18;46.61;101466.09;696927;28;23366;-65
2021/06/13 00:21:40;;;;;;;2.60;2.35;;;;;;;17.14;47.17;101467.53;698366;28;21673;-65
2021/06/13 00:22:01;;;;;;;2.50;2.30;;;;;;;17.11;46.84;101467.94;698613;28;45292;-65
2021/06/13 00:22:22;;;;;;;4.05;2.45;;;;;;;17.10;47.05;101472.56;696791;28;10572;-65
2021/06/13 00:22:43;;;;;;;5.38;2.40;;;;;;;17.09;47.18;101481.78;696570;28;22597;-65
2021/06/13 00:23:05;;;;;;;5.03;2.42;;;;;;;17.09;47.07;101461.84;695715;28;46410;-66
2021/06/13 00:23:34;;;;;;;4.53;2.20;;;;;;;17.10;46.98;101474.44;695242;28;61666;-66
2021/06/13 00:23:56;;;;;;;6.70;2.67;;;;;;;17.09;47.05;101470.03;697508;28;1509;-66
2021/06/13 00:24:17;;;;;;;7.57;4.77;;;;;;;17.09;47.29;101473.59;697235;28;46278;-65
2021/06/13 00:24:39;;;;;;;5.72;2.58;;;;;;;17.09;46.91;101475.50;700401;28;890;-65
2021/06/13 00:25:00;;;;;;;6.05;2.28;;;;;;;17.08;47.31;101474.66;699317;28;21546;-66
2021/06/13 00:25:23;;;;;;;5.40;2.47;;;;;;;17.08;47.08;101479.25;701230;28;5549;-66
2021/06/13 00:25:45;;;;;;;3.22;2.20;;;;;;;17.06;47.29;101475.88;699563;28;63607;-65
2021/06/13 00:26:11;;;;;;;4.72;2.35;;;;;;;17.05;46.91;101471.47;699620;28;59358;-65
2021/06/13 00:26:41;;;;;;;5.82;2.70;;;;;;;17.04;47.01;101472.53;701012;28;59235;-65
2021/06/13 00:27:03;;;;;;;4.80;2.78;;;;;;;17.05;46.84;101477.78;702005;28;1930;-66
2021/06/13 00:27:24;;;;;;;5.32;2.47;;;;;;;17.03;46.82;101477.13;701765;28;23445;-66
2021/06/13 00:27:45;;;;;;;4.40;2.00;;;;;;;17.02;47.27;101474.59;702222;28;23462;-66
2021/06/13 00:28:08;;;;;;;3.58;2.22;;;;;;;16.99;47.27;101480.47;702907;28;989;-66
2021/06/13 00:28:34;;;;;;;3.88;2.25;;;;;;;16.98;47.35;101476.91;698220;28;62191;-65
2021/06/13 00:28:56;;;;;;;3.08;2.17;;;;;;;16.96;47.43;101476.28;697042;28;57853;-65
2021/06/13 00:29:18;;;;;;;5.70;2.60;;;;;;;16.98;47.36;101478.78;699491;28;1759;-66
2021/06/13 00:29:40;;;;;;;6.55;2.60;;;;;;;16.96;47.31;101475.41;698595;28;47001;-65
2021/06/13 00:30:02;;;;;;;5.57;2.40;;;;;;;16.94;47.44;101475.59;697779;28;45297;-64
2021/06/13 00:30:24;;;;;;;4.35;2.40;;;;;;;16.95;47.06;101480.03;700693;28;43281;-66
2021/06/13 00:30:51;;;;;;;5.15;2.33;;;;;;;16.93;47.30;101480.22;700950;28;61602;-65
2021/06/13 00:31:12;;;;;;;4.78;2.17;;;;;;;16.93;47.07;101485.69;702947;28;5159;-66
2021/06/13 00:31:35;;;;;;;3.65;2.03;;;;;;;16.93;47.08;101480.22;702756;28;1247;-65
2021/06/13 00:31:57;;;;;;;3.15;2.15;;;;;;;16.91;46.96;101479.59;701463;28;37190;-65
2021/06/13 00:32:18;;;;;;;5.43;2.67;;;;;;;16.92;46.78;101477.69;702589;28;14471;-66
2021/06/13 00:32:39;;;;;;;3.60;2.40;;;;;;;16.91;46.97;101479.59;702196;28;23446;-66
2021/06/13 00:33:01;;;;;;;3.92;2.20;;;;;;;16.94;47.19;101481.06;702022;28;22442;-65
2021/06/13 00:33:22;;;;;;;3.88;2.20;;;;;;;16.94;46.45;101494.69;697855;28;45348;-64
2021/06/13 00:33:43;;;;;;;3.95;2.42;;;;;;;16.93;46.52;101488.41;699185;28;1849;-66
2021/06/13 00:34:04;;;;;;;7.25;2.22;;;;;;;16.93;46.90;101488.41;699422;28;21894;-65
2021/06/13 00:34:25;;;;;;;5.90;2.30;;;;;;;16.93;46.91;101484.84;698737;28;20390;-66
2021/06/13 00:34:46;;;;;;;4.40;2.10;;;;;;;16.94;46.99;101491.97;699414;28;23488;-65
2021/06/13 00:35:09;;;;;;;6.50;2.25;;;;;;;16.94;46.93;101486.53;699036;28;43671;-65
2021/06/13 00:35:30;;;;;;;5.22;2.30;;;;;;;16.93;46.55;101482.97;702760;28;4615;-65
2021/06/13 00:35:51;;;;;;;4.90;2.35;;;;;;;16.93;46.22;101488.41;702355;28;23764;-65
2021/06/13 00:36:14;;;;;;;6.43;2.60;;;;;;;16.94;46.31;101481.06;702980;28;925;-65
2021/06/13 00:36:45;;;;;;;3.40;2.20;;;;;;;16.95;46.25;101487.38;700812;28;61238;-64
2021/06/13 00:37:06;;;;;;;3.42;2.10;;;;;;;16.94;46.54;101489.25;699075;28;15410;-65
2021/06/13 00:37:27;;;;;;;4.50;2.60;;;;;;;16.94;46.30;101489.25;698704;28;23517;-66
2021/06/13 00:37:50;;;;;;;4.07;2.42;;;;;;;16.92;46.04;101481.25;697690;28;45012;-65
2021/06/13 00:38:12;;;;;;;5.07;2.35;;;;;;;16.90;45.81;101487.97;696002;28;70298;-65
2021/06/13 00:38:33;;;;;;;3.65;2.40;;;;;;;16.90;45.70;101487.97;698102;28;10531;-66
2021/06/13 00:38:55;;;;;;;5.00;2.58;;;;;;;16.89;46.06;101486.28;698439;28;19401;-65
2021/06/13 00:39:17;;;;;;;3.15;2.25;;;;;;;16.88;46.23;101485.47;697550;28;42652;-66
2021/06/13 00:39:38;;;;;;;2.30;1.88;;;;;;;16.88;46.26;101495.50;697844;28;46332;-65
2021/06/13 00:39:59;;;;;;;5.35;2.13;;;;;;;16.89;46.06;101494.47;698907;28;21542;-65
2021/06/13 00:40:23;;;;;;;6.93;2.58;;;;;;;16.87;46.13;101489.22;698529;28;21524;-65
2021/06/13 00:40:44;;;;;;;3.58;2.03;;;;;;;16.89;46.02;101489.00;693342;28;88818;-65
2021/06/13 00:41:07;;;;;;;4.50;2.10;;;;;;;16.87;45.88;101486.50;695790;28;45249;-65
2021/06/13 00:41:28;;;;;;;3.40;2.00;;;;;;;16.85;45.61;101483.09;695641;28;46514;-65
2021/06/13 00:41:50;;;;;;;3.22;2.25;;;;;;;16.83;45.79;101487.06;696179;28;23467;-65
2021/06/13 00:42:11;;;;;;;4.68;2.35;;;;;;;16.83;46.12;101487.88;696222;28;45292;-66
2021/06/13 00:42:32;;;;;;;4.68;2.25;;;;;;;16.84;45.80;101488.75;700085;28;22361;-65
2021/06/13 00:42:55;;;;;;;3.40;2.33;;;;;;;16.83;45.76;101487.06;702064;28;21549;-65
2021/06/13 00:43:16;;;;;;;4.22;2.10;;;;;;;16.83;45.70;101481.59;700016;28;69418;-65
2021/06/13 00:43:37;;;;;;;2.92;2.15;;;;;;;16.83;45.57;101484.31;700965;28;22544;-66
2021/06/13 00:43:58;;;;;;;2.60;2.00;;;;;;;16.81;45.28;101487.25;702187;28;24374;-65
2021/06/13 00:44:21;;;;;;;2.50;2.17;;;;;;;16.81;45.32;101481.81;702918;27;1530;-65
2021/06/13 00:44:42;;;;;;;2.38;2.17;;;;;;;16.81;45.56;101484.53;698761;28;44391;-65
2021/06/13 00:45:05;;;;;;;5.10;2.40;;;;;;;16.83;45.65;101487.06;695867;28;14844;-65
2021/06/13 00:45:35;;;;;;;4.65;2.20;;;;;;;16.84;45.47;101489.59;694026;28;84170;-66
2021/06/13 00:45:56;;;;;;;2.88;2.15;;;;;;;16.85;45.50;101490.41;692710;28;45306;-64
2021/06/13 00:46:18;;;;;;;3.88;2.45;;;;;;;16.84;45.27;101480.56;693655;28;22491;-66
2021/06/13 00:46:40;;;;;;;4.03;2.40;;;;;;;16.83;45.23;101489.78;695594;28;22413;-65
2021/06/13 00:47:01;;;;;;;4.15;2.40;;;;;;;16.82;45.24;101482.63;696754;28;69953;-65
2021/06/13 00:47:22;;;;;;;3.10;2.05;;;;;;;16.82;45.25;101493.53;699190;28;20861;-65
2021/06/13 00:47:44;;;;;;;4.72;2.35;;;;;;;16.82;45.20;101483.50;699980;28;12940;-65
2021/06/13 00:48:08;;;;;;;3.90;2.35;;;;;;;16.84;45.28;101484.13;698019;28;65820;-65
2021/06/13 00:48:36;;;;;;;3.33;2.45;;;;;;;16.85;45.14;101490.41;694656;28;61626;-65
2021/06/13 00:48:59;;;;;;;3.55;2.45;;;;;;;16.84;44.56;101483.28;694183;28;1026;-65
2021/06/13 00:49:21;;;;;;;4.00;2.50;;;;;;;16.82;44.52;101480.78;693244;28;1057;-65
2021/06/13 00:49:44;;;;;;;3.60;2.17;;;;;;;16.82;44.81;101483.50;691447;28;1138;-65
2021/06/13 00:50:09;;;;;;;5.30;2.40;;;;;;;16.84;44.84;101488.75;691607;28;13120;-65
2021/06/13 00:50:32;;;;;;;5.15;2.58;;;;;;;16.86;45.04;101492.16;688392;28;110382;-65
2021/06/13 00:50:55;;;;;;;5.65;2.63;;;;;;;16.86;44.94;101497.59;691058;28;92896;-65
2021/06/13 00:51:17;;;;;;;4.38;2.60;;;;;;;16.87;44.82;101500.13;692387;28;70346;-65
2021/06/13 00:51:38;;;;;;;2.55;2.30;;;;;;;16.87;44.55;101496.56;692362;28;44517;-65
2021/06/13 00:52:00;;;;;;;3.35;2.33;;;;;;;16.88;44.51;101490.03;693069;28;22376;-65
2021/06/13 00:52:22;;;;;;;4.32;2.33;;;;;;;16.90;44.46;101493.44;692564;28;1113;-65
2021/06/13 00:52:43;;;;;;;4.18;2.17;;;;;;;16.89;44.48;101492.56;690179;28;1163;-66
2021/06/13 00:53:06;;;;;;;4.88;2.50;;;;;;;16.91;44.18;101498.69;689949;28;45997;-64
2021/06/13 00:53:30;;;;;;;5.22;2.40;;;;;;;16.89;44.66;101481.66;686298;28;107063;-66
2021/06/13 00:53:56;;;;;;;4.68;2.40;;;;;;;16.89;44.33;101494.47;687089;28;132820;-65
2021/06/13 00:54:21;;;;;;;4.35;2.15;;;;;;;16.88;44.42;101501.81;689694;28;92092;-64
2021/06/13 00:54:43;;;;;;;2.97;2.40;;;;;;;16.89;44.44;101492.56;696999;28;1618;-65
2021/06/13 00:55:05;;;;;;;3.60;2.25;;;;;;;16.89;44.23;101495.31;696358;28;22418;-65
2021/06/13 00:55:28;;;;;;;3.08;2.20;;;;;;;16.89;43.88;101492.56;695765;28;45277;-64
2021/06/13 00:55:49;;;;;;;2.83;2.25;;;;;;;16.89;43.86;101491.75;691965;28;92189;-65
2021/06/13 00:56:17;;;;;;;4.35;2.40;;;;;;;16.90;43.92;101493.44;693410;28;59951;-65
2021/06/13 00:56:41;;;;;;;5.82;2.35;;;;;;;16.90;43.59;101494.28;694954;28;14673;-65
2021/06/13 00:57:03;;;;;;;3.00;2.25;;;;;;;16.89;43.67;101498.03;694672;28;18998;-65
2021/06/13 00:57:24;;;;;;;2.60;2.28;;;;;;;16.89;43.71;101487.13;691639;28;35190;-66
2021/06/13 00:57:45;;;;;;;3.05;2.33;;;;;;;16.88;43.47;101496.38;692737;28;18896;-65
2021/06/13 00:58:08;;;;;;;3.85;2.33;;;;;;;16.86;43.51;101498.44;695457;28;23486;-64
2021/06/13 00:58:30;;;;;;;4.28;1.95;;;;;;;16.85;44.06;101501.31;690534;28;67247;-65
2021/06/13 00:58:53;;;;;;;5.00;2.00;;;;;;;16.85;43.80;101495.88;692634;28;58342;-66
2021/06/13 00:59:16;;;;;;;5.60;2.17;;;;;;;16.82;44.07;101496.28;689353;28;92333;-65
2021/06/13 00:59:37;;;;;;;6.50;2.38;;;;;;;16.81;43.91;101491.88;692700;28;46380;-65
2021/06/13 00:59:59;;;;;;;4.15;2.15;;;;;;;16.81;43.90;101494.59;695341;28;1334;-65
2021/06/13 01:00:20;;;;;;;3.05;2.40;;;;;;;16.81;44.13;101500.06;694554;28;23498;-65
2021/06/13 01:00:43;;;;;;;6.13;2.60;;;;;;;16.80;43.73;101499.19;696593;28;15016;-65
2021/06/13 01:01:05;;;;;;;4.50;2.28;;;;;;;16.78;44.14;101495.00;692852;28;46342;-64
2021/06/13 01:01:31;;;;;;;5.65;2.13;;;;;;;16.76;43.79;101496.03;690200;28;115271;-65
2021/06/13 01:01:52;;;;;;;5.60;2.42;;;;;;;16.76;43.91;101490.59;692559;28;45213;-65
2021/06/13 01:02:13;;;;;;;4.38;2.60;;;;;;;16.77;43.86;101496.91;695799;28;929;-65
2021/06/13 01:02:38;;;;;;;4.53;2.25;;;;;;;16.76;44.04;101496.03;692246;28;38812;-65
2021/06/13 01:03:00;;;;;;;3.15;2.20;;;;;;;16.75;44.14;101497.09;690185;28;22173;-65
2021/06/13 01:03:22;;;;;;;3.42;2.40;;;;;;;16.75;44.03;101497.09;688859;28;69459;-65
2021/06/13 01:03:45;;;;;;;4.80;2.22;;;;;;;16.76;44.13;101500.66;692350;28;18148;-65
2021/06/13 01:04:07;;;;;;;4.80;2.08;;;;;;;16.75;44.08;101498.97;692619;28;52799;-65
2021/06/13 01:04:28;;;;;;;5.72;2.35;;;;;;;16.76;44.19;101498.75;695067;28;1033;-65
2021/06/13 01:04:50;;;;;;;4.15;2.40;;;;;;;16.76;44.07;101496.03;697059;28;20811;-66
2021/06/13 01:05:13;;;;;;;4.82;2.30;;;;;;;16.75;44.05;101499.81;694343;28;46445;-66
2021/06/13 01:05:34;;;;;;;5.05;2.13;;;;;;;16.75;44.05;101501.69;692699;28;53065;-65
2021/06/13 01:05:56;;;;;;;4.72;2.20;;;;;;;16.74;43.84;101500.84;693772;28;45229;-65
2021/06/13 01:06:23;;;;;;;5.57;2.33;;;;;;;16.74;44.24;101497.31;692657;28;1271;-65
2021/06/13 01:06:54;;;;;;;4.30;2.60;;;;;;;16.71;43.79;101506.72;692088;28;60756;-65
2021/06/13 01:07:21;;;;;;;4.50;2.45;;;;;;;16.69;43.93;101511.53;693355;28;59641;-65
2021/06/13 01:07:47;;;;;;;2.97;2.20;;;;;;;16.69;44.01;101510.66;688720;28;115194;-65
2021/06/13 01:08:19;;;;;;;3.35;2.10;;;;;;;16.69;44.02;101508.81;685125;28;139095;-65
2021/06/13 01:08:45;;;;;;;4.63;2.33;;;;;;;16.70;44.10;101509.63;688371;28;120363;-65
2021/06/13 01:09:09;;;;;;;3.40;2.40;;;;;;;16.67;43.92;101505.41;689837;28;124273;-64
2021/06/13 01:09:34;;;;;;;3.33;2.30;;;;;;;16.67;43.99;101512.75;692165;28;115127;-65
2021/06/13 01:10:00;;;;;;;4.03;2.13;;;;;;;16.66;44.36;101508.34;696419;28;61734;-65
2021/06/13 01:10:38;;;;;;;6.28;2.42;;;;;;;16.66;44.25;101508.34;691625;28;138251;-65
2021/06/13 01:11:12;;;;;;;5.68;2.30;;;;;;;16.64;44.46;101507.69;692770;28;121419;-65
2021/06/13 01:11:40;;;;;;;5.20;2.50;;;;;;;16.64;44.61;101510.44;692149;28;138205;-65
2021/06/13 01:12:06;;;;;;;3.50;2.03;;;;;;;16.64;44.15;101511.25;689507;28;137837;-64
2021/06/13 01:12:32;;;;;;;3.90;2.22;;;;;;;16.62;44.18;101507.06;693651;28;98960;-64
2021/06/13 01:12:58;;;;;;;3.80;2.30;;;;;;;16.60;44.16;101510.00;694356;28;61610;-65
2021/06/13 01:13:25;;;;;;;4.70;2.33;;;;;;;16.60;44.42;101510.00;692774;28;115140;-64
2021/06/13 01:13:51;;;;;;;3.97;2.22;;;;;;;16.61;44.42;101505.38;694295;28;93067;-65
2021/06/13 01:14:18;;;;;;;4.10;2.20;;;;;;;16.59;44.12;101500.13;692642;28;136460;-65
2021/06/13 01:14:46;;;;;;;5.43;2.60;;;;;;;16.61;44.38;101511.66;693343;28;139106;-65
2021/06/13 01:15:11;;;;;;;4.43;2.35;;;;;;;16.62;44.22;101507.06;692644;28;137913;-65
2021/06/13 01:15:38;;;;;;;4.13;2.42;;;;;;;16.60;44.55;101510.00;690999;28;138266;-64
2021/06/13 01:16:04;;;;;;;5.13;2.38;;;;;;;16.58;44.18;101509.31;694857;28;115762;-64
2021/06/13 01:16:29;;;;;;;3.72;2.25;;;;;;;16.58;44.15;101512.06;697118;28;61425;-65
2021/06/13 01:17:05;;;;;;;3.72;2.25;;;;;;;16.54;44.68;101516.25;694717;28;61825;-65
2021/06/13 01:17:30;;;;;;;5.53;2.55;;;;;;;16.53;44.50;101512.66;689094;28;137958;-65
2021/06/13 01:17:57;;;;;;;7.45;5.18;;;;;;;16.51;44.35;101522.09;687822;28;93278;-65
2021/06/13 01:18:21;;;;;;;9.57;7.20;;;;;;;16.48;44.80;101514.31;683430;28;136397;-65
2021/06/13 01:18:47;;;;;;;4.50;2.90;;;;;;;16.48;44.83;101519.75;687344;28;91034;-65
2021/06/13 01:19:20;;;;;;;3.33;2.40;;;;;;;16.46;44.47;101519.13;685070;28;137925;-64
2021/06/13 01:19:47;;;;;;;6.13;3.38;;;;;;;16.45;44.99;101520.16;688312;28;138167;-65
2021/06/13 01:20:20;;;;;;;3.85;2.70;;;;;;;16.47;44.93;101520.78;690570;28;90307;-65
2021/06/13 01:20:44;;;;;;;5.97;2.50;;;;;;;16.46;44.47;101519.13;691962;28;61220;-65
2021/06/13 01:21:10;;;;;;;4.43;2.13;;;;;;;16.45;44.73;101520.16;692791;28;92147;-65
2021/06/13 01:21:35;;;;;;;5.63;2.50;;;;;;;16.43;44.75;101516.78;692588;28;116002;-65
2021/06/13 01:22:00;;;;;;;4.30;2.33;;;;;;;16.43;45.00;101516.78;692073;28;106120;-65
2021/06/13 01:22:37;;;;;;;5.00;2.30;;;;;;;16.44;44.91;101518.44;688089;28;115139;-65
2021/06/13 01:23:09;;;;;;;3.25;2.15;;;;;;;16.44;44.94;101516.59;687508;28;137695;-67
2021/06/13 01:23:59;;;;;;;4.82;2.42;;;;;;;16.44;44.65;101519.31;685516;28;137714;-65
2021/06/13 01:24:27;;;;;;;4.28;2.38;;;;;;;16.47;44.39;101521.63;682157;28;138597;-64
2021/06/13 01:24:58;;;;;;;5.47;2.58;;;;;;;16.45;44.88;101520.97;690547;28;137603;-65
2021/06/13 01:25:29;;;;;;;4.68;2.80;;;;;;;16.44;44.83;101519.31;691795;28;138395;-64
2021/06/13 01:26:10;;;;;;;5.88;2.55;;;;;;;16.43;44.46;101522.22;692356;28;180142;-64
2021/06/13 01:27:18;;;;;;;4.30;2.75;;;;;;;16.44;44.98;101515.72;690878;28;155670;-65
2021/06/13 01:28:10;;;;;;;5.47;3.20;;;;;;;16.45;44.92;101520.97;681056;28;143990;-65
2021/06/13 01:28:50;;;;;;;4.07;2.50;;;;;;;16.44;44.71;101519.31;679290;28;123827;-66
2021/06/13 01:29:14;;;;;;;3.10;2.50;;;;;;;16.44;44.57;101515.72;686638;28;137778;-65
2021/06/13 01:29:41;;;;;;;2.45;2.22;;;;;;;16.44;44.96;101523.91;689075;28;137879;-65
2021/06/13 01:30:07;;;;;;;3.95;2.45;;;;;;;16.44;44.86;101518.44;692496;28;92302;-65
2021/06/13 01:30:31;;;;;;;4.68;2.70;;;;;;;16.42;45.02;101523.25;691222;28;138382;-65
2021/06/13 01:30:56;;;;;;;5.18;2.80;;;;;;;16.40;45.17;101523.47;693046;28;37540;-64
2021/06/13 01:31:22;;;;;;;5.72;3.22;;;;;;;16.36;44.93;101516.69;690313;28;38264;-66
2021/06/13 01:31:46;;;;;;;3.80;2.75;;;;;;;16.36;44.79;101519.44;685163;28;92046;-65
2021/06/13 01:32:14;;;;;;;3.88;2.40;;;;;;;16.35;45.09;101517.75;684732;28;128516;-66
2021/06/13 01:32:37;;;;;;;3.67;2.30;;;;;;;16.33;45.07;101520.69;689291;28;61620;-65
2021/06/13 01:33:04;;;;;;;4.63;2.45;;;;;;;16.33;45.08;101517.09;693793;28;1136;-65
2021/06/13 01:33:28;;;;;;;3.08;2.40;;;;;;;16.32;45.46;101520.88;690291;28;61511;-66
2021/06/13 01:33:55;;;;;;;5.72;2.58;;;;;;;16.30;45.64;101523.81;693143;28;61268;-65
2021/06/13 01:34:23;;;;;;;4.03;2.70;;;;;;;16.31;45.63;101519.19;692798;28;68051;-65
2021/06/13 01:34:49;;;;;;;4.68;2.45;;;;;;;16.32;45.16;101523.59;690552;28;126374;-66
2021/06/13 01:35:17;;;;;;;4.10;2.50;;;;;;;16.31;45.69;101516.47;691860;28;110843;-65
2021/06/13 01:35:41;;;;;;;3.33;2.58;;;;;;;16.30;45.90;101520.22;692342;28;38120;-65
2021/06/13 01:36:03;;;;;;;3.70;2.63;;;;;;;16.30;45.73;101521.06;692722;28;41831;-65
2021/06/13 01:36:26;;;;;;;5.88;2.90;;;;;;;16.31;46.02;101522.75;690305;28;46344;-65
2021/06/13 01:36:48;;;;;;;5.20;3.00;;;;;;;16.31;45.49;101525.47;688537;28;67441;-65
2021/06/13 01:37:14;;;;;;;6.53;2.50;;;;;;;16.31;46.06;101533.66;685578;28;92330;-65
2021/06/13 01:37:39;;;;;;;5.22;2.42;;;;;;;16.31;45.83;101530.09;686971;28;115249;-64
2021/06/13 01:38:00;;;;;;;4.85;2.40;;;;;;;16.31;45.83;101527.34;688800;28;91813;-65
2021/06/13 01:38:22;;;;;;;4.25;2.13;;;;;;;16.30;45.92;101523.81;692646;28;45262;-65
2021/06/13 01:38:45;;;;;;;2.72;2.20;;;;;;;16.29;46.42;101530.28;691954;28;22389;-65
2021/06/13 01:39:13;;;;;;;3.17;2.42;;;;;;;16.30;46.35;101520.22;690879;28;91981;-65
2021/06/13 01:39:37;;;;;;;3.00;2.30;;;;;;;16.29;46.30;101521.28;689762;28;134377;-65
2021/06/13 01:40:05;;;;;;;3.17;2.30;;;;;;;16.25;46.21;101528.13;689994;28;61545;-66
2021/06/13 01:40:31;;;;;;;5.25;2.53;;;;;;;16.22;46.24;101529.38;688296;28;133155;-65
2021/06/13 01:40:53;;;;;;;5.07;2.53;;;;;;;16.20;46.32;101529.56;691031;28;67287;-65
2021/06/13 01:41:19;;;;;;;5.78;2.58;;;;;;;16.19;46.67;101522.44;694093;28;68414;-65
2021/06/13 01:41:42;;;;;;;4.00;2.53;;;;;;;16.17;46.60;101526.38;694641;28;61704;-65
2021/06/13 01:42:05;;;;;;;3.90;2.60;;;;;;;16.18;46.92;101523.47;693292;28;69413;-65
2021/06/13 01:42:32;;;;;;;5.53;3.15;;;;;;;16.19;46.59;101524.31;689462;28;137948;-65
2021/06/13 01:42:54;;;;;;;7.07;3.63;;;;;;;16.18;46.66;101523.47;692761;28;44393;-65
2021/06/13 01:43:17;;;;;;;6.53;2.88;;;;;;;16.21;46.90;101524.97;690272;28;36338;-65
2021/06/13 01:43:43;;;;;;;4.18;2.58;;;;;;;16.20;46.82;101532.28;688317;28;92186;-65
2021/06/13 01:44:06;;;;;;;3.30;2.40;;;;;;;16.20;47.02;101537.72;689039;28;63899;-65
2021/06/13 01:44:29;;;;;;;4.93;2.53;;;;;;;16.23;46.95;101524.78;690857;28;69855;-65
2021/06/13 01:44:52;;;;;;;4.40;2.78;;;;;;;16.22;47.12;101529.38;691200;28;44370;-65
2021/06/13 01:45:20;;;;;;;5.47;3.10;;;;;;;16.19;46.82;101529.75;689617;28;136791;-65
2021/06/13 01:45:43;;;;;;;3.00;2.53;;;;;;;16.21;47.07;101527.69;689921;28;115034;-65
2021/06/13 01:46:06;;;;;;;4.30;2.30;;;;;;;16.19;47.18;101519.72;691288;28;69132;-64
2021/06/13 01:46:31;;;;;;;5.13;2.20;;;;;;;16.19;47.00;101533.34;689953;28;28090;-65
2021/06/13 01:46:54;;;;;;;4.15;2.05;;;;;;;16.18;47.27;101518.03;688269;28;103506;-65
2021/06/13 01:47:17;;;;;;;3.53;1.92;;;;;;;16.19;47.56;101521.56;689677;28;67398;-65
2021/06/13 01:47:39;;;;;;;2.75;2.05;;;;;;;16.19;47.39;101514.25;693070;28;44121;-65
2021/06/13 01:48:03;;;;;;;4.32;1.98;;;;;;;16.19;46.98;101517.00;697037;28;15919;-65
2021/06/13 01:48:24;;;;;;;5.55;2.15;;;;;;;16.19;47.27;101521.56;695898;28;41777;-64
2021/06/13 01:48:46;;;;;;;5.57;2.30;;;;;;;16.18;47.39;101519.91;696203;28;23909;-64
2021/06/13 01:49:08;;;;;;;5.10;2.40;;;;;;;16.16;47.14;101521.97;697074;28;32000;-65
2021/06/13 01:49:29;;;;;;;4.40;2.28;;;;;;;16.15;47.07;101521.13;694710;28;45276;-65
2021/06/13 01:49:53;;;;;;;2.90;2.10;;;;;;;16.14;47.60;101532.22;691973;28;58527;-65
2021/06/13 01:50:15;;;;;;;3.88;2.05;;;;;;;16.12;47.43;101515.25;695310;28;1576;-64
2021/06/13 01:50:39;;;;;;;3.53;2.10;;;;;;;16.12;47.65;101512.50;696551;28;15241;-64
2021/06/13 01:51:01;;;;;;;4.75;2.78;;;;;;;16.12;47.45;101517.97;696978;28;897;-65
2021/06/13 01:51:25;;;;;;;7.45;2.42;;;;;;;16.11;47.40;101522.59;695632;28;14875;-65
2021/06/13 01:51:48;;;;;;;5.35;2.42;;;;;;;16.11;47.67;101528.03;693915;28;44394;-65
2021/06/13 01:52:13;;;;;;;5.25;2.60;;;;;;;16.09;47.59;101523.81;697850;28;15837;-65
2021/06/13 01:52:39;;;;;;;3.13;2.38;;;;;;;16.10;47.51;101530.94;695964;28;61326;-65
2021/06/13 01:53:07;;;;;;;3.13;2.38;;;;;;;16.09;47.55;101524.63;690497;28;91872;-65